sensor_id;sensor_type;location;lat;lon;timestamp;P1;durP1;ratioP1;P2;durP2;ratioP2
13991;SDS011;7070;53.586;9.692;2023-07-29T00:01:57;4.63;;;2.83;;
13991;SDS011;7070;53.586;9.692;2023-07-29T00:04:24;5.03;;;2.33;;
13991;SDS011;7070;53.586;9.692;2023-07-29T00:06:51;5.63;;;2.40;;
13991;SDS011;7070;53.586;9.692;2023-07-29T00:09:19;3.83;;;2.70;;
13991;SDS011;7070;53.586;9.692;2023-07-29T00:11:46;6.47;;;2.50;;
13991;SDS011;7070;53.586;9.692;2023-07-29T00:14:12;3.33;;;2.50;;
13991;SDS011;7070;53.586;9.692;2023-07-29T00:16:39;8.33;;;2.73;;
13991;SDS011;7070;53.586;9.692;2023-07-29T00:19:07;3.43;;;2.53;;
13991;SDS011;7070;53.586;9.692;2023-07-29T00:21:34;3.50;;;2.40;;
13991;SDS011;7070;53.586;9.692;2023-07-29T00:24:01;3.57;;;2.37;;
13991;SDS011;7070;53.586;9.692;2023-07-29T00:26:29;4.70;;;2.17;;
13991;SDS011;7070;53.586;9.692;2023-07-29T00:28:56;5.23;;;3.00;;
13991;SDS011;7070;53.586;9.692;2023-07-29T00:31:23;3.60;;;2.53;;
13991;SDS011;7070;53.586;9.692;2023-07-29T00:33:49;4.27;;;2.43;;
13991;SDS011;7070;53.586;9.692;2023-07-29T00:36:17;8.17;;;2.33;;
13991;SDS011;7070;53.586;9.692;2023-07-29T00:38:44;4.07;;;2.60;;
13991;SDS011;7070;53.586;9.692;2023-07-29T00:41:11;4.83;;;2.67;;
13991;SDS011;7070;53.586;9.692;2023-07-29T00:43:41;3.77;;;2.63;;
13991;SDS011;7070;53.586;9.692;2023-07-29T00:46:08;4.00;;;2.60;;
13991;SDS011;7070;53.586;9.692;2023-07-29T00:48:35;4.03;;;3.10;;
13991;SDS011;7070;53.586;9.692;2023-07-29T00:51:02;6.87;;;2.50;;
13991;SDS011;7070;53.586;9.692;2023-07-29T00:53:29;5.63;;;3.10;;
13991;SDS011;7070;53.586;9.692;2023-07-29T00:55:56;4.87;;;2.93;;
13991;SDS011;7070;53.586;9.692;2023-07-29T00:58:23;4.50;;;2.90;;
13991;SDS011;7070;53.586;9.692;2023-07-29T01:00:51;4.73;;;3.00;;
13991;SDS011;7070;53.586;9.692;2023-07-29T01:03:19;5.63;;;2.63;;
13991;SDS011;7070;53.586;9.692;2023-07-29T01:05:50;3.23;;;2.50;;
13991;SDS011;7070;53.586;9.692;2023-07-29T01:08:27;4.77;;;2.93;;
13991;SDS011;7070;53.586;9.692;2023-07-29T01:11:01;4.77;;;2.77;;
13991;SDS011;7070;53.586;9.692;2023-07-29T01:13:40;4.90;;;2.77;;
13991;SDS011;7070;53.586;9.692;2023-07-29T01:16:23;4.23;;;2.47;;
13991;SDS011;7070;53.586;9.692;2023-07-29T01:18:56;5.13;;;3.13;;
13991;SDS011;7070;53.586;9.692;2023-07-29T01:21:30;5.27;;;2.83;;
13991;SDS011;7070;53.586;9.692;2023-07-29T01:23:59;3.90;;;2.93;;
13991;SDS011;7070;53.586;9.692;2023-07-29T01:26:26;4.20;;;2.73;;
13991;SDS011;7070;53.586;9.692;2023-07-29T01:28:54;5.47;;;3.33;;
13991;SDS011;7070;53.586;9.692;2023-07-29T01:31:23;5.20;;;2.50;;
13991;SDS011;7070;53.586;9.692;2023-07-29T01:33:57;3.80;;;2.67;;
13991;SDS011;7070;53.586;9.692;2023-07-29T01:36:28;5.03;;;2.93;;
13991;SDS011;7070;53.586;9.692;2023-07-29T01:38:57;3.80;;;2.63;;
13991;SDS011;7070;53.586;9.692;2023-07-29T01:41:25;4.73;;;3.27;;
13991;SDS011;7070;53.586;9.692;2023-07-29T01:43:53;4.03;;;3.23;;
13991;SDS011;7070;53.586;9.692;2023-07-29T01:46:21;5.20;;;3.23;;
13991;SDS011;7070;53.586;9.692;2023-07-29T01:48:48;5.87;;;3.97;;
13991;SDS011;7070;53.586;9.692;2023-07-29T01:51:15;7.53;;;3.70;;
13991;SDS011;7070;53.586;9.692;2023-07-29T01:53:42;5.13;;;3.00;;
13991;SDS011;7070;53.586;9.692;2023-07-29T01:56:09;5.87;;;3.87;;
13991;SDS011;7070;53.586;9.692;2023-07-29T01:58:37;5.77;;;3.87;;
13991;SDS011;7070;53.586;9.692;2023-07-29T02:01:04;5.10;;;3.60;;
13991;SDS011;7070;53.586;9.692;2023-07-29T02:03:31;5.43;;;3.47;;
13991;SDS011;7070;53.586;9.692;2023-07-29T02:05:58;4.77;;;3.40;;
13991;SDS011;7070;53.586;9.692;2023-07-29T02:08:24;7.63;;;4.07;;
13991;SDS011;7070;53.586;9.692;2023-07-29T02:10:51;6.60;;;3.93;;
13991;SDS011;7070;53.586;9.692;2023-07-29T02:13:18;6.33;;;4.17;;
13991;SDS011;7070;53.586;9.692;2023-07-29T02:15:46;6.80;;;3.77;;
13991;SDS011;7070;53.586;9.692;2023-07-29T02:18:13;8.73;;;3.17;;
13991;SDS011;7070;53.586;9.692;2023-07-29T02:20:40;5.53;;;3.50;;
13991;SDS011;7070;53.586;9.692;2023-07-29T02:23:14;5.60;;;4.00;;
13991;SDS011;7070;53.586;9.692;2023-07-29T02:25:40;4.93;;;3.60;;
13991;SDS011;7070;53.586;9.692;2023-07-29T02:28:07;7.47;;;4.50;;
13991;SDS011;7070;53.586;9.692;2023-07-29T02:30:34;5.57;;;3.93;;
13991;SDS011;7070;53.586;9.692;2023-07-29T02:33:04;7.70;;;4.33;;
13991;SDS011;7070;53.586;9.692;2023-07-29T02:35:30;7.87;;;3.93;;
13991;SDS011;7070;53.586;9.692;2023-07-29T02:37:57;5.93;;;3.90;;
13991;SDS011;7070;53.586;9.692;2023-07-29T02:40:24;7.27;;;4.47;;
13991;SDS011;7070;53.586;9.692;2023-07-29T02:42:51;5.87;;;4.00;;
13991;SDS011;7070;53.586;9.692;2023-07-29T02:45:18;10.47;;;4.37;;
13991;SDS011;7070;53.586;9.692;2023-07-29T02:47:45;5.10;;;3.43;;
13991;SDS011;7070;53.586;9.692;2023-07-29T02:50:13;6.50;;;4.53;;
13991;SDS011;7070;53.586;9.692;2023-07-29T02:52:40;6.57;;;4.27;;
13991;SDS011;7070;53.586;9.692;2023-07-29T02:55:07;7.13;;;4.40;;
13991;SDS011;7070;53.586;9.692;2023-07-29T02:57:34;6.70;;;3.97;;
13991;SDS011;7070;53.586;9.692;2023-07-29T03:00:01;8.77;;;4.63;;
13991;SDS011;7070;53.586;9.692;2023-07-29T03:02:28;8.80;;;4.77;;
13991;SDS011;7070;53.586;9.692;2023-07-29T03:04:55;6.50;;;4.40;;
13991;SDS011;7070;53.586;9.692;2023-07-29T03:07:23;8.33;;;5.20;;
13991;SDS011;7070;53.586;9.692;2023-07-29T03:09:50;7.90;;;4.23;;
13991;SDS011;7070;53.586;9.692;2023-07-29T03:12:17;6.93;;;4.73;;
13991;SDS011;7070;53.586;9.692;2023-07-29T03:14:47;7.87;;;5.03;;
13991;SDS011;7070;53.586;9.692;2023-07-29T03:17:14;6.10;;;4.17;;
13991;SDS011;7070;53.586;9.692;2023-07-29T03:19:40;7.93;;;5.00;;
13991;SDS011;7070;53.586;9.692;2023-07-29T03:22:07;10.80;;;5.70;;
13991;SDS011;7070;53.586;9.692;2023-07-29T03:24:35;9.43;;;5.47;;
13991;SDS011;7070;53.586;9.692;2023-07-29T03:27:02;8.50;;;5.27;;
13991;SDS011;7070;53.586;9.692;2023-07-29T03:29:30;9.37;;;5.17;;
13991;SDS011;7070;53.586;9.692;2023-07-29T03:31:57;6.50;;;4.47;;
13991;SDS011;7070;53.586;9.692;2023-07-29T03:34:24;8.40;;;4.80;;
13991;SDS011;7070;53.586;9.692;2023-07-29T03:36:50;9.30;;;5.57;;
13991;SDS011;7070;53.586;9.692;2023-07-29T03:39:17;10.83;;;5.10;;
13991;SDS011;7070;53.586;9.692;2023-07-29T03:41:46;7.60;;;5.20;;
13991;SDS011;7070;53.586;9.692;2023-07-29T03:44:12;10.30;;;5.03;;
13991;SDS011;7070;53.586;9.692;2023-07-29T03:46:39;9.50;;;5.57;;
13991;SDS011;7070;53.586;9.692;2023-07-29T03:49:06;9.77;;;5.47;;
13991;SDS011;7070;53.586;9.692;2023-07-29T03:51:33;8.83;;;5.13;;
13991;SDS011;7070;53.586;9.692;2023-07-29T03:54:00;9.03;;;5.83;;
13991;SDS011;7070;53.586;9.692;2023-07-29T03:56:27;11.10;;;6.40;;
13991;SDS011;7070;53.586;9.692;2023-07-29T03:58:57;10.43;;;6.27;;
13991;SDS011;7070;53.586;9.692;2023-07-29T04:01:29;10.10;;;6.37;;
13991;SDS011;7070;53.586;9.692;2023-07-29T04:03:55;14.13;;;6.50;;
13991;SDS011;7070;53.586;9.692;2023-07-29T04:06:22;10.63;;;6.57;;
13991;SDS011;7070;53.586;9.692;2023-07-29T04:08:49;12.17;;;7.03;;
13991;SDS011;7070;53.586;9.692;2023-07-29T04:11:16;9.53;;;6.23;;
13991;SDS011;7070;53.586;9.692;2023-07-29T04:13:43;15.10;;;7.73;;
13991;SDS011;7070;53.586;9.692;2023-07-29T04:16:11;10.60;;;6.67;;
13991;SDS011;7070;53.586;9.692;2023-07-29T04:18:38;14.37;;;8.03;;
13991;SDS011;7070;53.586;9.692;2023-07-29T04:21:07;15.83;;;7.73;;
13991;SDS011;7070;53.586;9.692;2023-07-29T04:23:34;17.00;;;8.13;;
13991;SDS011;7070;53.586;9.692;2023-07-29T04:26:01;15.73;;;8.30;;
13991;SDS011;7070;53.586;9.692;2023-07-29T04:28:28;15.77;;;7.67;;
13991;SDS011;7070;53.586;9.692;2023-07-29T04:30:55;16.27;;;8.47;;
13991;SDS011;7070;53.586;9.692;2023-07-29T04:33:23;19.60;;;9.23;;
13991;SDS011;7070;53.586;9.692;2023-07-29T04:35:49;15.33;;;7.83;;
13991;SDS011;7070;53.586;9.692;2023-07-29T04:38:16;17.13;;;7.87;;
13991;SDS011;7070;53.586;9.692;2023-07-29T04:40:43;18.43;;;9.17;;
13991;SDS011;7070;53.586;9.692;2023-07-29T04:43:11;18.33;;;9.67;;
13991;SDS011;7070;53.586;9.692;2023-07-29T04:45:41;19.50;;;9.77;;
13991;SDS011;7070;53.586;9.692;2023-07-29T04:48:09;19.17;;;9.13;;
13991;SDS011;7070;53.586;9.692;2023-07-29T04:50:37;17.87;;;9.20;;
13991;SDS011;7070;53.586;9.692;2023-07-29T04:53:04;15.30;;;9.03;;
13991;SDS011;7070;53.586;9.692;2023-07-29T04:56:03;19.90;;;9.53;;
13991;SDS011;7070;53.586;9.692;2023-07-29T04:58:30;15.63;;;8.10;;
13991;SDS011;7070;53.586;9.692;2023-07-29T05:00:59;19.13;;;9.87;;
13991;SDS011;7070;53.586;9.692;2023-07-29T05:03:26;19.37;;;9.00;;
13991;SDS011;7070;53.586;9.692;2023-07-29T05:05:55;17.77;;;9.17;;
13991;SDS011;7070;53.586;9.692;2023-07-29T05:08:22;14.43;;;8.30;;
13991;SDS011;7070;53.586;9.692;2023-07-29T05:10:49;16.47;;;8.77;;
13991;SDS011;7070;53.586;9.692;2023-07-29T05:13:16;15.87;;;8.77;;
13991;SDS011;7070;53.586;9.692;2023-07-29T05:15:43;19.47;;;9.47;;
13991;SDS011;7070;53.586;9.692;2023-07-29T05:18:10;16.63;;;8.77;;
13991;SDS011;7070;53.586;9.692;2023-07-29T05:20:37;17.67;;;9.43;;
13991;SDS011;7070;53.586;9.692;2023-07-29T05:23:05;19.63;;;9.70;;
13991;SDS011;7070;53.586;9.692;2023-07-29T05:25:32;16.80;;;9.17;;
13991;SDS011;7070;53.586;9.692;2023-07-29T05:27:59;18.13;;;9.07;;
13991;SDS011;7070;53.586;9.692;2023-07-29T05:30:26;16.43;;;9.20;;
13991;SDS011;7070;53.586;9.692;2023-07-29T05:32:56;16.17;;;8.90;;
13991;SDS011;7070;53.586;9.692;2023-07-29T05:35:23;20.40;;;9.53;;
13991;SDS011;7070;53.586;9.692;2023-07-29T05:37:49;15.13;;;8.97;;
13991;SDS011;7070;53.586;9.692;2023-07-29T05:40:18;16.83;;;8.50;;
13991;SDS011;7070;53.586;9.692;2023-07-29T05:42:45;15.53;;;9.30;;
13991;SDS011;7070;53.586;9.692;2023-07-29T05:45:13;19.00;;;8.83;;
13991;SDS011;7070;53.586;9.692;2023-07-29T05:47:39;15.83;;;8.57;;
13991;SDS011;7070;53.586;9.692;2023-07-29T05:50:07;18.20;;;8.97;;
13991;SDS011;7070;53.586;9.692;2023-07-29T05:52:35;18.17;;;9.17;;
13991;SDS011;7070;53.586;9.692;2023-07-29T05:55:01;17.77;;;9.23;;
13991;SDS011;7070;53.586;9.692;2023-07-29T05:57:30;16.47;;;8.33;;
13991;SDS011;7070;53.586;9.692;2023-07-29T05:59:57;18.87;;;9.33;;
13991;SDS011;7070;53.586;9.692;2023-07-29T06:02:23;15.03;;;8.37;;
13991;SDS011;7070;53.586;9.692;2023-07-29T06:04:50;19.87;;;9.70;;
13991;SDS011;7070;53.586;9.692;2023-07-29T06:07:17;19.70;;;10.07;;
13991;SDS011;7070;53.586;9.692;2023-07-29T06:09:44;18.73;;;10.13;;
13991;SDS011;7070;53.586;9.692;2023-07-29T06:12:11;24.87;;;9.93;;
13991;SDS011;7070;53.586;9.692;2023-07-29T06:14:39;19.17;;;9.90;;
13991;SDS011;7070;53.586;9.692;2023-07-29T06:17:06;19.63;;;10.00;;
13991;SDS011;7070;53.586;9.692;2023-07-29T06:19:33;19.27;;;9.53;;
13991;SDS011;7070;53.586;9.692;2023-07-29T06:22:00;18.27;;;9.37;;
13991;SDS011;7070;53.586;9.692;2023-07-29T06:24:27;20.33;;;8.83;;
13991;SDS011;7070;53.586;9.692;2023-07-29T06:26:53;17.03;;;8.47;;
13991;SDS011;7070;53.586;9.692;2023-07-29T06:29:20;21.10;;;10.00;;
13991;SDS011;7070;53.586;9.692;2023-07-29T06:31:48;20.83;;;10.10;;
13991;SDS011;7070;53.586;9.692;2023-07-29T06:34:16;18.37;;;10.03;;
13991;SDS011;7070;53.586;9.692;2023-07-29T06:36:43;21.73;;;10.13;;
13991;SDS011;7070;53.586;9.692;2023-07-29T06:39:10;19.87;;;10.77;;
13991;SDS011;7070;53.586;9.692;2023-07-29T06:41:37;21.87;;;10.10;;
13991;SDS011;7070;53.586;9.692;2023-07-29T06:44:04;25.63;;;10.97;;
13991;SDS011;7070;53.586;9.692;2023-07-29T06:46:31;24.33;;;12.03;;
13991;SDS011;7070;53.586;9.692;2023-07-29T06:48:59;23.67;;;11.63;;
13991;SDS011;7070;53.586;9.692;2023-07-29T06:51:26;25.70;;;11.47;;
13991;SDS011;7070;53.586;9.692;2023-07-29T06:53:54;18.53;;;9.47;;
13991;SDS011;7070;53.586;9.692;2023-07-29T06:56:21;22.83;;;11.37;;
13991;SDS011;7070;53.586;9.692;2023-07-29T06:58:48;20.03;;;10.53;;
13991;SDS011;7070;53.586;9.692;2023-07-29T07:01:15;24.30;;;11.07;;
13991;SDS011;7070;53.586;9.692;2023-07-29T07:03:41;20.03;;;10.10;;
13991;SDS011;7070;53.586;9.692;2023-07-29T07:06:10;19.60;;;10.23;;
13991;SDS011;7070;53.586;9.692;2023-07-29T07:08:36;26.17;;;11.37;;
13991;SDS011;7070;53.586;9.692;2023-07-29T07:11:03;23.37;;;11.43;;
13991;SDS011;7070;53.586;9.692;2023-07-29T07:13:30;22.90;;;11.67;;
13991;SDS011;7070;53.586;9.692;2023-07-29T07:15:57;23.13;;;11.43;;
13991;SDS011;7070;53.586;9.692;2023-07-29T07:18:24;22.60;;;10.83;;
13991;SDS011;7070;53.586;9.692;2023-07-29T07:20:51;19.47;;;9.97;;
13991;SDS011;7070;53.586;9.692;2023-07-29T07:23:19;19.83;;;9.50;;
13991;SDS011;7070;53.586;9.692;2023-07-29T07:25:46;20.10;;;9.33;;
13991;SDS011;7070;53.586;9.692;2023-07-29T07:28:13;16.97;;;9.13;;
13991;SDS011;7070;53.586;9.692;2023-07-29T07:30:40;23.67;;;9.57;;
13991;SDS011;7070;53.586;9.692;2023-07-29T07:33:07;18.87;;;10.17;;
13991;SDS011;7070;53.586;9.692;2023-07-29T07:35:34;17.07;;;9.10;;
13991;SDS011;7070;53.586;9.692;2023-07-29T07:38:01;20.27;;;9.13;;
13991;SDS011;7070;53.586;9.692;2023-07-29T07:40:30;14.70;;;7.80;;
13991;SDS011;7070;53.586;9.692;2023-07-29T07:42:57;14.13;;;8.03;;
13991;SDS011;7070;53.586;9.692;2023-07-29T07:45:24;15.47;;;7.90;;
13991;SDS011;7070;53.586;9.692;2023-07-29T07:47:51;16.33;;;7.43;;
13991;SDS011;7070;53.586;9.692;2023-07-29T07:50:19;14.93;;;8.13;;
13991;SDS011;7070;53.586;9.692;2023-07-29T07:52:46;13.30;;;8.17;;
13991;SDS011;7070;53.586;9.692;2023-07-29T07:55:12;16.20;;;8.77;;
13991;SDS011;7070;53.586;9.692;2023-07-29T07:57:41;18.93;;;8.67;;
13991;SDS011;7070;53.586;9.692;2023-07-29T08:00:08;17.03;;;9.17;;
13991;SDS011;7070;53.586;9.692;2023-07-29T08:02:35;17.00;;;9.77;;
13991;SDS011;7070;53.586;9.692;2023-07-29T08:05:02;23.00;;;11.40;;
13991;SDS011;7070;53.586;9.692;2023-07-29T08:07:29;24.53;;;12.67;;
13991;SDS011;7070;53.586;9.692;2023-07-29T08:09:56;25.20;;;10.60;;
13991;SDS011;7070;53.586;9.692;2023-07-29T08:12:23;22.63;;;10.60;;
13991;SDS011;7070;53.586;9.692;2023-07-29T08:14:51;23.23;;;11.30;;
13991;SDS011;7070;53.586;9.692;2023-07-29T08:17:18;21.50;;;10.83;;
13991;SDS011;7070;53.586;9.692;2023-07-29T08:19:45;26.73;;;12.27;;
13991;SDS011;7070;53.586;9.692;2023-07-29T08:22:12;25.60;;;12.13;;
13991;SDS011;7070;53.586;9.692;2023-07-29T08:24:39;25.33;;;12.17;;
13991;SDS011;7070;53.586;9.692;2023-07-29T08:27:06;23.20;;;11.43;;
13991;SDS011;7070;53.586;9.692;2023-07-29T08:29:33;21.73;;;11.23;;
13991;SDS011;7070;53.586;9.692;2023-07-29T08:32:01;21.67;;;11.23;;
13991;SDS011;7070;53.586;9.692;2023-07-29T08:34:28;23.20;;;12.17;;
13991;SDS011;7070;53.586;9.692;2023-07-29T08:36:55;25.70;;;11.77;;
13991;SDS011;7070;53.586;9.692;2023-07-29T08:39:21;20.63;;;11.67;;
13991;SDS011;7070;53.586;9.692;2023-07-29T08:41:49;20.03;;;11.60;;
13991;SDS011;7070;53.586;9.692;2023-07-29T08:44:21;24.33;;;11.93;;
13991;SDS011;7070;53.586;9.692;2023-07-29T08:46:49;21.90;;;12.40;;
13991;SDS011;7070;53.586;9.692;2023-07-29T08:49:17;20.27;;;11.47;;
13991;SDS011;7070;53.586;9.692;2023-07-29T08:51:45;20.00;;;11.10;;
13991;SDS011;7070;53.586;9.692;2023-07-29T08:54:13;23.00;;;10.90;;
13991;SDS011;7070;53.586;9.692;2023-07-29T08:56:40;19.40;;;10.53;;
13991;SDS011;7070;53.586;9.692;2023-07-29T08:59:08;17.47;;;10.37;;
13991;SDS011;7070;53.586;9.692;2023-07-29T09:01:35;19.73;;;11.03;;
13991;SDS011;7070;53.586;9.692;2023-07-29T09:04:03;18.53;;;9.23;;
13991;SDS011;7070;53.586;9.692;2023-07-29T09:06:32;20.63;;;10.27;;
13991;SDS011;7070;53.586;9.692;2023-07-29T09:08:59;18.47;;;10.07;;
13991;SDS011;7070;53.586;9.692;2023-07-29T09:11:28;17.60;;;8.40;;
13991;SDS011;7070;53.586;9.692;2023-07-29T09:13:56;15.65;;;9.00;;
13991;SDS011;7070;53.586;9.692;2023-07-29T09:16:23;16.50;;;8.47;;
13991;SDS011;7070;53.586;9.692;2023-07-29T09:18:51;12.77;;;8.02;;
13991;SDS011;7070;53.586;9.692;2023-07-29T09:21:22;13.88;;;7.63;;
13991;SDS011;7070;53.586;9.692;2023-07-29T09:23:56;11.05;;;7.10;;
13991;SDS011;7070;53.586;9.692;2023-07-29T09:26:27;11.35;;;7.25;;
13991;SDS011;7070;53.586;9.692;2023-07-29T09:28:59;10.77;;;7.00;;
13991;SDS011;7070;53.586;9.692;2023-07-29T09:31:28;10.73;;;6.65;;
13991;SDS011;7070;53.586;9.692;2023-07-29T09:33:59;10.75;;;6.28;;
13991;SDS011;7070;53.586;9.692;2023-07-29T09:36:27;9.77;;;5.68;;
13991;SDS011;7070;53.586;9.692;2023-07-29T09:39:24;8.15;;;5.60;;
13991;SDS011;7070;53.586;9.692;2023-07-29T09:42:11;8.57;;;5.55;;
13991;SDS011;7070;53.586;9.692;2023-07-29T09:44:42;10.45;;;5.70;;
13991;SDS011;7070;53.586;9.692;2023-07-29T09:47:08;11.20;;;5.45;;
13991;SDS011;7070;53.586;9.692;2023-07-29T09:49:35;9.25;;;5.20;;
13991;SDS011;7070;53.586;9.692;2023-07-29T09:52:02;7.60;;;4.18;;
13991;SDS011;7070;53.586;9.692;2023-07-29T09:54:31;6.97;;;4.70;;
13991;SDS011;7070;53.586;9.692;2023-07-29T09:56:58;9.05;;;4.80;;
13991;SDS011;7070;53.586;9.692;2023-07-29T09:59:25;12.48;;;4.78;;
13991;SDS011;7070;53.586;9.692;2023-07-29T10:01:54;7.07;;;4.63;;
13991;SDS011;7070;53.586;9.692;2023-07-29T10:04:27;6.22;;;2.70;;
13991;SDS011;7070;53.586;9.692;2023-07-29T10:06:56;4.22;;;2.47;;
13991;SDS011;7070;53.586;9.692;2023-07-29T10:09:24;6.15;;;2.75;;
13991;SDS011;7070;53.586;9.692;2023-07-29T10:11:52;4.15;;;2.53;;
13991;SDS011;7070;53.586;9.692;2023-07-29T10:14:20;3.58;;;2.00;;
13991;SDS011;7070;53.586;9.692;2023-07-29T10:16:48;2.20;;;1.45;;
13991;SDS011;7070;53.586;9.692;2023-07-29T10:19:16;2.33;;;1.63;;
13991;SDS011;7070;53.586;9.692;2023-07-29T10:21:44;1.55;;;1.38;;
13991;SDS011;7070;53.586;9.692;2023-07-29T10:24:15;4.53;;;1.70;;
13991;SDS011;7070;53.586;9.692;2023-07-29T10:26:45;2.90;;;1.65;;
13991;SDS011;7070;53.586;9.692;2023-07-29T10:29:15;2.20;;;1.48;;
13991;SDS011;7070;53.586;9.692;2023-07-29T10:31:46;2.70;;;1.58;;
13991;SDS011;7070;53.586;9.692;2023-07-29T10:34:14;1.65;;;1.27;;
13991;SDS011;7070;53.586;9.692;2023-07-29T10:36:41;1.58;;;1.13;;
13991;SDS011;7070;53.586;9.692;2023-07-29T10:39:11;1.17;;;0.95;;
13991;SDS011;7070;53.586;9.692;2023-07-29T10:41:54;1.88;;;1.17;;
13991;SDS011;7070;53.586;9.692;2023-07-29T10:47:19;1.52;;;1.00;;
13991;SDS011;7070;53.586;9.692;2023-07-29T10:49:47;3.63;;;1.25;;
13991;SDS011;7070;53.586;9.692;2023-07-29T10:52:16;4.10;;;1.33;;
13991;SDS011;7070;53.586;9.692;2023-07-29T10:54:53;1.08;;;0.98;;
13991;SDS011;7070;53.586;9.692;2023-07-29T10:57:29;1.73;;;1.23;;
13991;SDS011;7070;53.586;9.692;2023-07-29T10:59:58;3.78;;;1.80;;
13991;SDS011;7070;53.586;9.692;2023-07-29T11:02:29;3.13;;;2.38;;
13991;SDS011;7070;53.586;9.692;2023-07-29T11:04:58;4.20;;;2.53;;
13991;SDS011;7070;53.586;9.692;2023-07-29T11:07:26;3.97;;;2.40;;
13991;SDS011;7070;53.586;9.692;2023-07-29T11:09:57;3.85;;;2.55;;
13991;SDS011;7070;53.586;9.692;2023-07-29T11:12:39;6.75;;;3.10;;
13991;SDS011;7070;53.586;9.692;2023-07-29T11:15:16;2.60;;;1.58;;
13991;SDS011;7070;53.586;9.692;2023-07-29T11:17:45;2.30;;;1.55;;
13991;SDS011;7070;53.586;9.692;2023-07-29T11:20:14;2.65;;;1.50;;
13991;SDS011;7070;53.586;9.692;2023-07-29T11:22:42;3.13;;;1.88;;
13991;SDS011;7070;53.586;9.692;2023-07-29T11:25:09;3.47;;;2.35;;
13991;SDS011;7070;53.586;9.692;2023-07-29T11:27:37;4.53;;;1.50;;
13991;SDS011;7070;53.586;9.692;2023-07-29T11:30:11;2.55;;;1.60;;
13991;SDS011;7070;53.586;9.692;2023-07-29T11:32:40;2.92;;;1.70;;
13991;SDS011;7070;53.586;9.692;2023-07-29T11:35:08;2.35;;;1.52;;
13991;SDS011;7070;53.586;9.692;2023-07-29T11:37:36;3.00;;;1.92;;
13991;SDS011;7070;53.586;9.692;2023-07-29T11:40:06;1.42;;;1.15;;
13991;SDS011;7070;53.586;9.692;2023-07-29T11:42:35;1.48;;;1.17;;
13991;SDS011;7070;53.586;9.692;2023-07-29T11:45:03;1.20;;;0.93;;
13991;SDS011;7070;53.586;9.692;2023-07-29T11:47:32;1.55;;;1.17;;
13991;SDS011;7070;53.586;9.692;2023-07-29T11:50:03;1.67;;;0.98;;
13991;SDS011;7070;53.586;9.692;2023-07-29T11:52:31;2.28;;;1.10;;
13991;SDS011;7070;53.586;9.692;2023-07-29T11:54:59;2.25;;;1.10;;
13991;SDS011;7070;53.586;9.692;2023-07-29T11:57:28;3.33;;;1.02;;
13991;SDS011;7070;53.586;9.692;2023-07-29T11:59:55;1.83;;;1.05;;
13991;SDS011;7070;53.586;9.692;2023-07-29T12:02:22;1.95;;;1.40;;
13991;SDS011;7070;53.586;9.692;2023-07-29T12:04:54;1.48;;;1.13;;
13991;SDS011;7070;53.586;9.692;2023-07-29T12:07:23;1.33;;;0.90;;
13991;SDS011;7070;53.586;9.692;2023-07-29T12:09:52;1.15;;;0.90;;
13991;SDS011;7070;53.586;9.692;2023-07-29T12:12:19;1.27;;;0.90;;
13991;SDS011;7070;53.586;9.692;2023-07-29T12:14:48;1.58;;;0.95;;
13991;SDS011;7070;53.586;9.692;2023-07-29T12:17:15;1.85;;;1.00;;
13991;SDS011;7070;53.586;9.692;2023-07-29T12:19:42;1.67;;;1.10;;
13991;SDS011;7070;53.586;9.692;2023-07-29T12:22:09;1.10;;;0.90;;
13991;SDS011;7070;53.586;9.692;2023-07-29T12:24:39;1.42;;;1.02;;
13991;SDS011;7070;53.586;9.692;2023-07-29T12:27:10;1.70;;;1.15;;
13991;SDS011;7070;53.586;9.692;2023-07-29T12:29:41;2.08;;;1.27;;
13991;SDS011;7070;53.586;9.692;2023-07-29T12:32:08;1.42;;;1.15;;
13991;SDS011;7070;53.586;9.692;2023-07-29T12:34:36;2.83;;;1.27;;
13991;SDS011;7070;53.586;9.692;2023-07-29T12:37:07;4.90;;;1.10;;
13991;SDS011;7070;53.586;9.692;2023-07-29T12:39:35;1.20;;;0.90;;
13991;SDS011;7070;53.586;9.692;2023-07-29T12:42:07;1.73;;;1.10;;
13991;SDS011;7070;53.586;9.692;2023-07-29T12:44:34;1.52;;;0.90;;
13991;SDS011;7070;53.586;9.692;2023-07-29T12:47:03;1.88;;;1.08;;
13991;SDS011;7070;53.586;9.692;2023-07-29T12:49:33;1.50;;;1.15;;
13991;SDS011;7070;53.586;9.692;2023-07-29T12:52:00;1.30;;;1.10;;
13991;SDS011;7070;53.586;9.692;2023-07-29T12:54:27;2.60;;;1.20;;
13991;SDS011;7070;53.586;9.692;2023-07-29T12:56:54;1.63;;;1.23;;
13991;SDS011;7070;53.586;9.692;2023-07-29T12:59:22;2.88;;;1.30;;
13991;SDS011;7070;53.586;9.692;2023-07-29T13:01:49;3.03;;;1.20;;
13991;SDS011;7070;53.586;9.692;2023-07-29T13:04:16;1.35;;;1.10;;
13991;SDS011;7070;53.586;9.692;2023-07-29T13:06:43;0.93;;;0.80;;
13991;SDS011;7070;53.586;9.692;2023-07-29T13:09:10;2.13;;;1.23;;
13991;SDS011;7070;53.586;9.692;2023-07-29T13:11:36;1.45;;;0.90;;
13991;SDS011;7070;53.586;9.692;2023-07-29T13:14:03;1.50;;;1.10;;
13991;SDS011;7070;53.586;9.692;2023-07-29T13:16:32;2.85;;;1.25;;
13991;SDS011;7070;53.586;9.692;2023-07-29T13:18:59;2.47;;;1.08;;
13991;SDS011;7070;53.586;9.692;2023-07-29T13:21:26;2.08;;;1.30;;
13991;SDS011;7070;53.586;9.692;2023-07-29T13:23:53;2.22;;;1.23;;
13991;SDS011;7070;53.586;9.692;2023-07-29T13:26:20;3.40;;;1.30;;
13991;SDS011;7070;53.586;9.692;2023-07-29T13:28:47;1.60;;;1.38;;
13991;SDS011;7070;53.586;9.692;2023-07-29T13:31:13;2.45;;;1.45;;
13991;SDS011;7070;53.586;9.692;2023-07-29T13:33:42;1.65;;;0.95;;
13991;SDS011;7070;53.586;9.692;2023-07-29T13:36:09;1.30;;;1.08;;
13991;SDS011;7070;53.586;9.692;2023-07-29T13:38:37;1.30;;;0.90;;
13991;SDS011;7070;53.586;9.692;2023-07-29T13:41:04;2.35;;;1.30;;
13991;SDS011;7070;53.586;9.692;2023-07-29T13:43:31;1.48;;;1.00;;
13991;SDS011;7070;53.586;9.692;2023-07-29T13:45:58;1.25;;;1.08;;
13991;SDS011;7070;53.586;9.692;2023-07-29T13:48:25;3.33;;;1.08;;
13991;SDS011;7070;53.586;9.692;2023-07-29T13:50:53;1.65;;;1.00;;
13991;SDS011;7070;53.586;9.692;2023-07-29T13:53:20;1.63;;;1.13;;
13991;SDS011;7070;53.586;9.692;2023-07-29T13:55:48;2.35;;;1.05;;
13991;SDS011;7070;53.586;9.692;2023-07-29T13:58:15;2.75;;;1.17;;
13991;SDS011;7070;53.586;9.692;2023-07-29T14:00:42;1.88;;;0.88;;
13991;SDS011;7070;53.586;9.692;2023-07-29T14:03:19;1.60;;;0.93;;
13991;SDS011;7070;53.586;9.692;2023-07-29T14:05:46;1.05;;;0.88;;
13991;SDS011;7070;53.586;9.692;2023-07-29T14:08:14;1.98;;;1.13;;
13991;SDS011;7070;53.586;9.692;2023-07-29T14:10:41;1.55;;;0.90;;
13991;SDS011;7070;53.586;9.692;2023-07-29T14:13:08;1.73;;;1.00;;
13991;SDS011;7070;53.586;9.692;2023-07-29T14:15:35;1.27;;;0.90;;
13991;SDS011;7070;53.586;9.692;2023-07-29T14:18:02;1.92;;;1.23;;
13991;SDS011;7070;53.586;9.692;2023-07-29T14:20:28;1.90;;;1.10;;
13991;SDS011;7070;53.586;9.692;2023-07-29T14:22:58;1.65;;;1.40;;
13991;SDS011;7070;53.586;9.692;2023-07-29T14:25:26;3.55;;;1.00;;
13991;SDS011;7070;53.586;9.692;2023-07-29T14:27:53;1.65;;;1.00;;
13991;SDS011;7070;53.586;9.692;2023-07-29T14:30:20;0.73;;;0.73;;
13991;SDS011;7070;53.586;9.692;2023-07-29T14:32:47;1.27;;;1.00;;
13991;SDS011;7070;53.586;9.692;2023-07-29T14:35:14;1.13;;;0.98;;
13991;SDS011;7070;53.586;9.692;2023-07-29T14:37:41;1.40;;;0.88;;
13991;SDS011;7070;53.586;9.692;2023-07-29T14:40:08;2.28;;;1.27;;
13991;SDS011;7070;53.586;9.692;2023-07-29T14:42:36;1.83;;;1.00;;
13991;SDS011;7070;53.586;9.692;2023-07-29T14:45:04;1.80;;;0.90;;
13991;SDS011;7070;53.586;9.692;2023-07-29T14:47:31;2.03;;;1.20;;
13991;SDS011;7070;53.586;9.692;2023-07-29T14:49:59;1.27;;;0.95;;
13991;SDS011;7070;53.586;9.692;2023-07-29T14:52:26;1.67;;;1.10;;
13991;SDS011;7070;53.586;9.692;2023-07-29T14:54:53;3.83;;;1.30;;
13991;SDS011;7070;53.586;9.692;2023-07-29T14:57:20;2.25;;;1.00;;
13991;SDS011;7070;53.586;9.692;2023-07-29T14:59:48;1.98;;;1.23;;
13991;SDS011;7070;53.586;9.692;2023-07-29T15:02:15;2.78;;;1.30;;